Time;durP1;ratioP1;P1;durP2;ratioP2;P2;SDS_P1;SDS_P2;PMS_P1;PMS_P2;Temp;Humidity;BMP_temperature;BMP_pressure;BME280_temperature;BME280_humidity;BME280_pressure;Samples;Min_cycle;Max_cycle;Signal;HPM_P1;HPM_P2
2022/01/12 00:02:44;;;;;;;;;;;;;;;-17.36;64.43;97411.19;6376190;27;19924;-63
2022/01/12 00:05:45;;;;;;;;;;;;;;;-17.27;64.35;97414.16;6374987;27;19923;-62
2022/01/12 00:08:48;;;;;;;;;;;;;;;-17.31;64.20;97407.25;6357009;27;20327;-62
2022/01/12 00:11:51;;;;;;;;;;;;;;;-17.31;64.17;97414.78;6374652;27;19923;-63
2022/01/12 00:14:55;;;;;;;;;;;;;;;-17.28;64.40;97412.44;6375534;27;19968;-62
2022/01/12 00:17:58;;;;;;;;;;;;;;;-17.25;64.46;97407.56;6374916;27;19923;-62
2022/01/12 00:20:59;;;;;;;;;;;;;;;-17.34;64.39;97409.63;6375372;27;19923;-62
2022/01/12 00:24:00;;;;;;;;;;;;;;;-17.37;64.37;97416.16;6375323;27;19923;-63
2022/01/12 00:33:40;;;;;;;;;;;;;;;-17.50;64.61;97420.50;6374912;27;19923;-63
2022/01/12 00:36:44;;;;;;;;;;;;;;;-17.54;64.75;97418.63;6375137;27;19924;-62
2022/01/12 00:39:45;;;;;;;;;;;;;;;-17.54;64.88;97433.72;6374914;27;20404;-63
2022/01/12 00:42:48;;;;;;;;;;;;;;;-17.54;64.90;97432.88;6374140;27;19923;-63
2022/01/12 00:45:49;;;;;;;;;;;;;;;-17.52;64.90;97441.34;6373914;27;20007;-62
2022/01/12 00:48:53;;;;;;;;;;;;;;;-17.51;64.78;97433.03;6356177;27;20400;-63
2022/01/12 00:51:54;;;;;;;;;;;;;;;-17.48;64.75;97431.53;6374301;27;19923;-63
2022/01/12 00:54:55;;;;;;;;;;;;;;;-17.52;64.91;97436.31;6374628;27;19937;-63
2022/01/12 00:57:58;;;;;;;;;;;;;;;-17.45;64.70;97438.38;6374104;27;19924;-62
2022/01/12 01:01:02;;;;;;;;;;;;;;;-17.50;64.68;97438.13;6374778;27;20341;-62
2022/01/12 01:04:03;;;;;;;;;;;;;;;-17.44;64.72;97438.44;6374541;27;19930;-63
2022/01/12 01:07:04;;;;;;;;;;;;;;;-17.36;64.64;97446.38;6374330;27;19919;-63
2022/01/12 01:10:09;;;;;;;;;;;;;;;-17.36;64.50;97448.91;6373463;27;20480;-64
2022/01/12 01:13:10;;;;;;;;;;;;;;;-17.31;64.60;97442.47;6374052;27;20380;-62
2022/01/12 01:16:22;;;;;;;;;;;;;;;-17.30;64.41;97444.19;6373602;27;20455;-63
2022/01/12 01:26:02;;;;;;;;;;;;;;;-17.03;64.40;97448.91;6372883;27;20400;-63
2022/01/12 01:29:04;;;;;;;;;;;;;;;-17.05;64.24;97445.44;6373909;27;19925;-64
2022/01/12 01:32:08;;;;;;;;;;;;;;;-16.95;64.15;97441.72;6372825;27;19924;-62
2022/01/12 01:35:10;;;;;;;;;;;;;;;-16.89;64.43;97442.94;6373505;27;19935;-63
2022/01/12 01:38:12;;;;;;;;;;;;;;;-16.99;64.26;97451.66;6372811;27;20273;-63
2022/01/12 01:41:14;;;;;;;;;;;;;;;-16.96;64.34;97455.97;6373513;27;19924;-63
2022/01/12 01:54:02;;;;;;;;;;;;;;;-17.05;64.64;97455.50;6373128;27;19923;-63
2022/01/12 01:57:08;;;;;;;;;;;;;;;-17.12;64.54;97448.44;6355255;27;19927;-63
2022/01/12 02:00:11;;;;;;;;;;;;;;;-17.13;64.62;97451.75;6354084;27;19923;-63
2022/01/12 02:03:16;;;;;;;;;;;;;;;-17.16;64.73;97446.56;6373157;27;20022;-63
2022/01/12 02:06:20;;;;;;;;;;;;;;;-17.23;65.10;97446.25;6372294;27;19924;-63
2022/01/12 02:09:23;;;;;;;;;;;;;;;-17.23;64.88;97447.91;6372762;27;19924;-63
2022/01/12 02:12:24;;;;;;;;;;;;;;;-17.22;65.35;97455.50;6372436;27;20412;-63
2022/01/12 02:15:26;;;;;;;;;;;;;;;-17.19;65.10;97456.47;6372739;27;19923;-63
2022/01/12 02:41:38;;;;;;;;;;;;;;;-17.14;65.44;97450.03;6370975;27;20277;-62
2022/01/12 02:54:21;;;;;;;;;;;;;;;-17.43;66.12;97466.97;6370581;27;19930;-62
2022/01/12 02:57:25;;;;;;;;;;;;;;;-17.49;66.01;97472.56;6370988;27;19923;-62
2022/01/12 03:00:38;;;;;;;;;;;;;;;-17.45;66.27;97483.63;6371625;27;20461;-62
2022/01/12 03:03:41;;;;;;;;;;;;;;;-17.32;66.35;97475.06;6371199;28;19935;-63
2022/01/12 03:06:45;;;;;;;;;;;;;;;-17.25;66.23;97477.13;6370287;28;20380;-63
2022/01/12 03:09:46;;;;;;;;;;;;;;;-17.20;66.12;97488.31;6370471;28;20277;-63
2022/01/12 03:12:50;;;;;;;;;;;;;;;-17.13;66.30;97487.81;6371197;28;20328;-64
2022/01/12 03:15:51;;;;;;;;;;;;;;;-17.05;66.03;97490.75;6370572;28;19924;-63
2022/01/12 03:18:53;;;;;;;;;;;;;;;-17.01;66.03;97492.63;6370449;28;19930;-63
2022/01/12 03:21:55;;;;;;;;;;;;;;;-16.94;65.91;97487.13;6370929;28;19923;-63
2022/01/12 03:24:56;;;;;;;;;;;;;;;-16.89;66.02;97490.75;6371374;28;19923;-63
2022/01/12 03:28:02;;;;;;;;;;;;;;;-16.88;65.70;97497.50;6371043;28;19930;-64
2022/01/12 03:31:18;;;;;;;;;;;;;;;-16.82;66.07;97491.91;6370820;28;20392;-64
2022/01/12 03:34:29;;;;;;;;;;;;;;;-16.76;65.96;97492.22;6370031;28;19923;-63
2022/01/12 04:10:04;;;;;;;;;;;;;;;-16.62;66.52;97533.16;6375305;27;20014;-63
2022/01/12 04:13:07;;;;;;;;;;;;;;;-16.69;66.52;97538.69;6374052;27;20064;-64
2022/01/12 04:16:08;;;;;;;;;;;;;;;-16.60;66.93;97542.53;6373730;27;20056;-61
2022/01/12 04:19:12;;;;;;;;;;;;;;;-16.48;66.70;97542.28;6375034;27;19930;-63
2022/01/12 04:25:35;;;;;;;;;;;;;;;-16.50;66.63;97553.94;6373726;27;19976;-63
2022/01/12 04:28:41;;;;;;;;;;;;;;;-16.40;66.69;97558.66;6374882;27;19930;-63
2022/01/12 04:31:46;;;;;;;;;;;;;;;-16.34;66.58;97565.66;6374222;27;20474;-63
2022/01/12 04:34:47;;;;;;;;;;;;;;;-16.16;66.60;97565.69;6373884;27;20374;-63
2022/01/12 04:37:48;;;;;;;;;;;;;;;-16.06;66.37;97577.97;6374029;27;19931;-64
2022/01/12 04:40:50;;;;;;;;;;;;;;;-15.90;66.29;97580.47;6374912;27;20285;-63
2022/01/12 04:43:56;;;;;;;;;;;;;;;-15.70;65.88;97583.09;6374377;27;19923;-64
2022/01/12 04:47:06;;;;;;;;;;;;;;;-15.51;65.67;97585.66;6374548;27;19958;-63
2022/01/12 04:50:07;;;;;;;;;;;;;;;-15.40;65.18;97589.56;6373101;27;19931;-64
2022/01/12 04:53:14;;;;;;;;;;;;;;;-15.23;65.04;97591.97;6373581;27;19923;-64
2022/01/12 04:56:15;;;;;;;;;;;;;;;-15.03;64.97;97586.22;6374215;27;19927;-64
2022/01/12 04:59:16;;;;;;;;;;;;;;;-14.95;64.72;97589.94;6374480;27;19930;-64
2022/01/12 05:15:36;;;;;;;;;;;;;;;-14.57;64.27;97618.59;6372712;27;19923;-63
2022/01/12 05:18:38;;;;;;;;;;;;;;;-14.58;64.29;97616.84;6372578;27;19934;-63
2022/01/12 05:21:42;;;;;;;;;;;;;;;-14.52;64.33;97617.13;6373180;27;20388;-63
2022/01/12 05:24:45;;;;;;;;;;;;;;;-14.27;63.53;97630.78;6372931;27;19930;-63
2022/01/12 05:27:47;;;;;;;;;;;;;;;-14.31;63.25;97628.94;6373147;27;19930;-64
2022/01/12 05:30:51;;;;;;;;;;;;;;;-14.34;63.53;97618.69;6372938;27;19928;-63
2022/01/12 05:33:52;;;;;;;;;;;;;;;-14.14;62.91;97620.41;6373623;27;19923;-63
2022/01/12 05:36:55;;;;;;;;;;;;;;;-14.22;62.66;97616.69;6373315;27;19923;-63
2022/01/12 05:39:59;;;;;;;;;;;;;;;-14.19;62.59;97621.03;6372836;27;19946;-63
2022/01/12 05:43:03;;;;;;;;;;;;;;;-14.24;62.71;97623.34;6373703;27;20010;-65
2022/01/12 05:46:10;;;;;;;;;;;;;;;-14.03;62.74;97624.28;6373455;27;20410;-63
2022/01/12 05:52:37;;;;;;;;;;;;;;;-13.35;61.97;97630.44;6373195;27;19923;-63
2022/01/12 05:55:40;;;;;;;;;;;;;;;-12.97;61.33;97630.19;6372131;27;20392;-63
2022/01/12 05:58:46;;;;;;;;;;;;;;;-12.56;60.34;97628.38;6372884;27;19924;-63
2022/01/12 06:01:47;;;;;;;;;;;;;;;-12.13;59.43;97635.00;6373019;27;19923;-64
2022/01/12 06:04:49;;;;;;;;;;;;;;;-11.77;58.72;97626.09;6373036;27;19923;-63
2022/01/12 06:07:50;;;;;;;;;;;;;;;-11.48;57.75;97643.13;6371693;27;19923;-63
2022/01/12 06:10:56;;;;;;;;;;;;;;;-11.16;57.58;97642.50;6372115;27;19937;-63
2022/01/12 06:13:58;;;;;;;;;;;;;;;-10.67;57.23;97632.97;6353339;27;19923;-63
2022/01/12 06:17:02;;;;;;;;;;;;;;;-10.31;56.74;97634.88;6372290;27;19927;-64
2022/01/12 06:20:06;;;;;;;;;;;;;;;-9.97;56.12;97640.06;6372334;27;19923;-64
2022/01/12 06:23:09;;;;;;;;;;;;;;;-9.72;55.78;97638.19;6371429;27;20371;-63
2022/01/12 06:26:13;;;;;;;;;;;;;;;-9.43;55.38;97653.38;6371626;27;19937;-63
2022/01/12 06:29:25;;;;;;;;;;;;;;;-9.18;55.12;97645.53;6370693;27;20343;-63
2022/01/12 06:32:29;;;;;;;;;;;;;;;-9.12;55.37;97645.66;6371988;27;19923;-64
2022/01/12 06:35:30;;;;;;;;;;;;;;;-9.25;55.10;97643.66;6371167;27;20027;-62
2022/01/12 06:38:34;;;;;;;;;;;;;;;-9.57;55.84;97646.22;6372013;27;20388;-63
2022/01/12 06:41:39;;;;;;;;;;;;;;;-10.01;56.38;97648.47;6370578;27;20017;-63
2022/01/12 06:44:40;;;;;;;;;;;;;;;-10.27;57.02;97640.13;6370510;27;19931;-63
2022/01/12 06:47:41;;;;;;;;;;;;;;;-10.38;57.45;97648.28;6370864;27;19926;-63
2022/01/12 06:50:45;;;;;;;;;;;;;;;-10.32;56.67;97646.75;6370764;27;20038;-63
2022/01/12 06:53:53;;;;;;;;;;;;;;;-10.36;56.43;97649.16;6371580;27;19976;-62
2022/01/12 06:56:58;;;;;;;;;;;;;;;-10.29;56.11;97654.47;6371774;27;19924;-63
2022/01/12 06:59:59;;;;;;;;;;;;;;;-10.22;55.19;97646.19;6371054;27;20308;-62
2022/01/12 07:03:01;;;;;;;;;;;;;;;-10.12;54.47;97654.94;6370587;27;19923;-63
2022/01/12 07:06:02;;;;;;;;;;;;;;;-10.26;54.68;97653.66;6370426;27;19923;-62
2022/01/12 07:09:04;;;;;;;;;;;;;;;-10.21;54.90;97659.75;6371213;27;19924;-63
2022/01/12 07:12:08;;;;;;;;;;;;;;;-9.86;54.06;97658.19;6371239;28;19927;-64
2022/01/12 07:15:09;;;;;;;;;;;;;;;-9.79;53.58;97654.16;6370381;28;19923;-64
2022/01/12 07:18:12;;;;;;;;;;;;;;;-9.57;53.22;97656.41;6371029;28;20384;-63
2022/01/12 07:21:13;;;;;;;;;;;;;;;-9.34;52.73;97654.50;6370861;28;20006;-63
2022/01/12 07:24:17;;;;;;;;;;;;;;;-9.07;52.16;97654.31;6371630;28;19923;-63
2022/01/12 07:27:18;;;;;;;;;;;;;;;-8.01;50.66;97653.22;6370564;28;19927;-63
2022/01/12 07:30:22;;;;;;;;;;;;;;;-6.20;47.36;97651.16;6371196;28;19959;-63
2022/01/12 07:33:25;;;;;;;;;;;;;;;-3.68;43.48;97639.59;6371073;28;19924;-63
2022/01/12 07:36:26;;;;;;;;;;;;;;;-1.31;40.00;97629.03;6371169;28;19923;-63
2022/01/12 07:39:27;;;;;;;;;;;;;;;0.41;37.20;97636.94;6352342;28;19935;-63
2022/01/12 07:42:28;;;;;;;;;;;;;;;1.45;35.90;97633.75;6373778;27;19927;-63
2022/01/12 07:45:29;;;;;;;;;;;;;;;2.39;34.58;97638.09;6376051;27;20006;-63
2022/01/12 07:48:32;;;;;;;;;;;;;;;3.25;33.83;97637.06;6376267;27;20017;-63
2022/01/12 07:51:38;;;;;;;;;;;;;;;4.00;33.39;97636.94;6376223;27;19924;-63
2022/01/12 07:54:42;;;;;;;;;;;;;;;4.69;32.22;97642.84;6375993;27;19939;-63
2022/01/12 07:57:45;;;;;;;;;;;;;;;5.00;32.24;97647.16;6375979;27;20296;-63
2022/01/12 08:00:46;;;;;;;;;;;;;;;5.25;30.95;97653.31;6375524;27;20312;-63
2022/01/12 08:03:47;;;;;;;;;;;;;;;5.30;30.68;97634.94;6357053;27;19924;-63
2022/01/12 08:06:51;;;;;;;;;;;;;;;5.49;30.58;97648.22;6375671;27;19927;-63
2022/01/12 08:09:57;;;;;;;;;;;;;;;5.84;30.72;97653.16;6375603;27;20334;-63
2022/01/12 08:12:58;;;;;;;;;;;;;;;5.33;28.80;97651.34;6374009;27;20308;-64
2022/01/12 08:15:59;;;;;;;;;;;;;;;5.15;29.01;97646.69;6374494;27;19923;-64
2022/01/12 08:19:00;;;;;;;;;;;;;;;4.95;28.55;97652.50;6375266;27;20399;-63
2022/01/12 08:22:06;;;;;;;;;;;;;;;5.35;29.27;97653.88;6375032;27;19988;-62
2022/01/12 08:25:10;;;;;;;;;;;;;;;6.10;27.79;97653.22;6375299;27;20393;-63
2022/01/12 08:28:11;;;;;;;;;;;;;;;6.64;25.81;97655.63;6374158;27;20602;-63
2022/01/12 08:31:15;;;;;;;;;;;;;;;7.11;24.67;97644.28;6374075;27;19923;-63
2022/01/12 08:34:18;;;;;;;;;;;;;;;7.07;24.66;97647.94;6375052;27;19928;-63
2022/01/12 08:37:19;;;;;;;;;;;;;;;7.69;25.26;97652.44;6374443;27;19946;-62
2022/01/12 08:40:23;;;;;;;;;;;;;;;8.10;25.12;97642.00;6374154;27;20325;-63
2022/01/12 08:43:26;;;;;;;;;;;;;;;8.49;24.67;97655.22;6374352;27;19923;-63
2022/01/12 08:46:32;;;;;;;;;;;;;;;8.33;22.33;97656.75;6374447;27;19991;-64
2022/01/12 08:49:36;;;;;;;;;;;;;;;8.36;24.49;97653.16;6374276;27;20381;-64
2022/01/12 08:52:37;;;;;;;;;;;;;;;8.93;23.58;97648.88;6372667;27;20410;-62
2022/01/12 08:55:38;;;;;;;;;;;;;;;9.16;22.93;97650.44;6373709;27;19924;-66
2022/01/12 08:58:41;;;;;;;;;;;;;;;9.07;22.52;97653.50;6356661;27;19923;-64
2022/01/12 09:01:45;;;;;;;;;;;;;;;8.92;23.06;97653.28;6374462;27;19923;-64
2022/01/12 09:04:48;;;;;;;;;;;;;;;8.74;22.76;97648.84;6373260;27;20409;-63
2022/01/12 09:07:53;;;;;;;;;;;;;;;8.62;21.57;97665.16;6374303;27;20380;-65
2022/01/12 09:10:54;;;;;;;;;;;;;;;8.14;21.17;97647.97;6373658;27;19923;-63
2022/01/12 09:13:55;;;;;;;;;;;;;;;7.44;21.09;97649.94;6373208;27;19952;-63
2022/01/12 09:16:56;;;;;;;;;;;;;;;7.09;21.80;97657.44;6373281;27;20398;-64
2022/01/12 09:19:58;;;;;;;;;;;;;;;7.65;21.50;97651.72;6373601;27;19931;-65
2022/01/12 09:23:02;;;;;;;;;;;;;;;7.27;21.31;97644.53;6373649;27;20304;-63
2022/01/12 09:26:06;;;;;;;;;;;;;;;6.13;22.33;97645.28;6373722;27;19924;-63
2022/01/12 09:29:08;;;;;;;;;;;;;;;6.42;21.40;97649.47;6373657;27;19946;-64
2022/01/12 09:32:10;;;;;;;;;;;;;;;7.27;21.91;97655.00;6373272;27;19953;-63
2022/01/12 09:35:13;;;;;;;;;;;;;;;7.55;21.56;97650.38;6373585;27;20285;-63
2022/01/12 09:38:18;;;;;;;;;;;;;;;7.24;20.99;97660.38;6373522;27;19923;-64
2022/01/12 09:41:24;;;;;;;;;;;;;;;6.42;22.39;97657.31;6371965;27;20434;-64
2022/01/12 09:44:29;;;;;;;;;;;;;;;6.01;22.16;97662.22;6355697;27;20363;-64
2022/01/12 09:47:30;;;;;;;;;;;;;;;5.92;22.06;97658.13;6372108;27;19923;-64
2022/01/12 09:50:31;;;;;;;;;;;;;;;5.70;21.98;97660.59;6373190;27;20017;-63
2022/01/12 09:53:36;;;;;;;;;;;;;;;5.00;22.15;97657.59;6373057;27;19923;-63
2022/01/12 09:56:40;;;;;;;;;;;;;;;4.22;22.97;97658.94;6372054;27;20410;-63
2022/01/12 09:59:46;;;;;;;;;;;;;;;3.09;24.09;97659.97;6372050;27;19929;-63
2022/01/12 10:02:52;;;;;;;;;;;;;;;2.38;24.48;97657.16;6373038;27;20022;-64
2022/01/12 10:05:54;;;;;;;;;;;;;;;2.47;23.81;97662.16;6371551;27;19930;-64
2022/01/12 10:08:57;;;;;;;;;;;;;;;2.67;24.08;97659.16;6372577;27;19923;-63
2022/01/12 10:12:01;;;;;;;;;;;;;;;2.74;23.66;97654.69;6372579;27;19923;-64
2022/01/12 10:15:09;;;;;;;;;;;;;;;2.65;24.46;97650.53;6371892;27;19930;-64
2022/01/12 10:18:13;;;;;;;;;;;;;;;2.92;23.48;97649.94;6372154;27;19923;-63
2022/01/12 10:21:25;;;;;;;;;;;;;;;1.85;24.10;97656.41;6372062;27;20009;-64
2022/01/12 10:24:28;;;;;;;;;;;;;;;1.44;25.13;97652.75;6371341;27;20044;-63
2022/01/12 10:27:29;;;;;;;;;;;;;;;1.21;25.25;97653.13;6371069;27;19931;-64
2022/01/12 10:30:33;;;;;;;;;;;;;;;-0.95;26.98;97658.94;6371319;27;19930;-64
2022/01/12 10:33:34;;;;;;;;;;;;;;;-3.68;30.55;97644.75;6370403;27;19923;-63
2022/01/12 10:36:36;;;;;;;;;;;;;;;-5.83;33.97;97651.59;6371770;27;20090;-64
2022/01/12 10:39:41;;;;;;;;;;;;;;;-7.24;35.88;97651.28;6371272;27;20304;-64
2022/01/12 10:42:44;;;;;;;;;;;;;;;-7.75;37.71;97649.50;6372015;27;19923;-64
2022/01/12 10:45:48;;;;;;;;;;;;;;;-8.64;38.67;97655.31;6371807;27;20065;-64
2022/01/12 10:48:51;;;;;;;;;;;;;;;-9.14;39.61;97667.75;6371283;27;19935;-64
2022/01/12 10:51:53;;;;;;;;;;;;;;;-9.56;39.90;97668.34;6370390;27;20331;-64
2022/01/12 10:54:59;;;;;;;;;;;;;;;-9.77;40.39;97667.75;6371596;27;19923;-64
2022/01/12 10:58:00;;;;;;;;;;;;;;;-10.05;41.61;97664.44;6371136;27;19930;-65
2022/01/12 11:01:02;;;;;;;;;;;;;;;-10.36;42.25;97677.13;6353243;27;19924;-64
2022/01/12 11:04:03;;;;;;;;;;;;;;;-10.54;42.85;97675.78;6371073;27;19946;-64
2022/01/12 11:07:04;;;;;;;;;;;;;;;-10.71;43.14;97684.56;6371627;27;19923;-64
2022/01/12 11:10:06;;;;;;;;;;;;;;;-10.72;43.81;97690.50;6371678;28;20006;-64
2022/01/12 11:13:07;;;;;;;;;;;;;;;-10.96;43.90;97678.72;6371653;28;19931;-64
2022/01/12 11:16:11;;;;;;;;;;;;;;;-11.20;44.60;97680.47;6372092;27;19923;-64
2022/01/12 11:19:12;;;;;;;;;;;;;;;-11.25;44.94;97676.91;6375835;27;19927;-64
2022/01/12 11:22:21;;;;;;;;;;;;;;;-11.38;44.94;97671.44;6375584;27;19923;-64
2022/01/12 11:25:45;;;;;;;;;;;;;;;-11.47;44.78;97671.09;6376267;27;19930;-63
2022/01/12 11:28:52;;;;;;;;;;;;;;;-11.45;45.15;97678.78;6351330;27;20455;-64
2022/01/12 11:32:04;;;;;;;;;;;;;;;-11.60;45.85;97674.91;6375683;27;20419;-63
2022/01/12 11:35:08;;;;;;;;;;;;;;;-11.81;46.14;97685.16;6375764;27;19923;-64
2022/01/12 11:38:20;;;;;;;;;;;;;;;-12.03;46.63;97678.53;6376253;27;19923;-63
2022/01/12 11:41:26;;;;;;;;;;;;;;;-12.11;47.30;97690.06;6376034;27;19923;-64
2022/01/12 11:44:33;;;;;;;;;;;;;;;-12.25;47.96;97684.47;6374911;27;20312;-64
2022/01/12 11:47:42;;;;;;;;;;;;;;;-12.43;48.16;97686.31;6376109;27;19941;-64
2022/01/12 11:50:51;;;;;;;;;;;;;;;-12.63;49.08;97687.25;6375495;27;19923;-63
2022/01/12 11:53:55;;;;;;;;;;;;;;;-12.72;49.35;97691.16;6374863;27;19923;-64
2022/01/12 11:56:59;;;;;;;;;;;;;;;-12.88;49.51;97698.94;6375789;27;19970;-64
2022/01/12 12:00:20;;;;;;;;;;;;;;;-13.04;50.45;97700.03;6375868;27;19923;-64
2022/01/12 12:03:25;;;;;;;;;;;;;;;-13.20;50.07;97708.66;6375611;27;20010;-63
2022/01/12 12:06:29;;;;;;;;;;;;;;;-13.40;50.93;97715.47;6375255;27;20311;-64
2022/01/12 12:09:44;;;;;;;;;;;;;;;-13.51;50.68;97713.28;6356956;27;19930;-64
2022/01/12 12:12:49;;;;;;;;;;;;;;;-13.55;51.07;97708.91;6374626;27;19931;-64
2022/01/12 12:15:52;;;;;;;;;;;;;;;-13.60;51.55;97712.09;6375384;27;20323;-63
2022/01/12 12:18:55;;;;;;;;;;;;;;;-13.74;51.87;97708.13;6373976;27;20357;-65
2022/01/12 12:21:59;;;;;;;;;;;;;;;-13.71;52.00;97718.38;6374949;27;20404;-64
2022/01/12 12:25:06;;;;;;;;;;;;;;;-13.82;52.38;97729.69;6374920;27;20003;-65
2022/01/12 12:28:09;;;;;;;;;;;;;;;-13.87;53.10;97733.69;6374157;27;20334;-64
2022/01/12 12:31:10;;;;;;;;;;;;;;;-13.91;52.85;97739.41;6375210;27;19968;-64
2022/01/12 12:34:11;;;;;;;;;;;;;;;-13.96;53.38;97743.41;6374783;27;20381;-65
2022/01/12 12:37:17;;;;;;;;;;;;;;;-13.87;54.52;97736.22;6374675;27;19923;-64
2022/01/12 12:40:21;;;;;;;;;;;;;;;-13.99;54.42;97741.59;6374687;27;20389;-65
2022/01/12 12:43:32;;;;;;;;;;;;;;;-13.94;54.93;97745.19;6374793;27;19931;-65
2022/01/12 12:46:38;;;;;;;;;;;;;;;-13.88;55.24;97749.66;6374745;27;19923;-64
2022/01/12 12:49:46;;;;;;;;;;;;;;;-13.97;55.11;97750.13;6374582;27;19923;-63
2022/01/12 12:52:52;;;;;;;;;;;;;;;-14.10;55.86;97748.69;6374600;27;20441;-63
2022/01/12 12:55:53;;;;;;;;;;;;;;;-14.09;56.11;97745.41;6374134;27;20036;-64
2022/01/12 12:58:57;;;;;;;;;;;;;;;-14.21;56.59;97754.94;6374290;27;19955;-64
2022/01/12 13:02:09;;;;;;;;;;;;;;;-14.19;57.14;97745.78;6373953;27;19919;-62
2022/01/12 13:05:12;;;;;;;;;;;;;;;-14.28;57.14;97751.28;6374161;27;19923;-64
2022/01/12 13:08:16;;;;;;;;;;;;;;;-14.36;56.80;97764.38;6356225;27;19923;-64
2022/01/12 13:11:17;;;;;;;;;;;;;;;-14.43;56.85;97762.34;6373678;27;20440;-64
2022/01/12 13:14:21;;;;;;;;;;;;;;;-14.46;56.92;97763.09;6373761;27;20013;-63
2022/01/12 13:17:26;;;;;;;;;;;;;;;-14.40;57.07;97762.50;6372977;27;19923;-64
2022/01/12 13:23:39;;;;;;;;;;;;;;;-14.39;57.10;97769.28;6373708;27;19923;-64
2022/01/12 13:26:40;;;;;;;;;;;;;;;-14.48;57.15;97768.06;6373762;27;20012;-65
2022/01/12 13:29:47;;;;;;;;;;;;;;;-14.55;57.13;97777.81;6355274;27;19924;-64
2022/01/12 13:32:52;;;;;;;;;;;;;;;-14.61;57.25;97775.88;6374052;27;19983;-65
2022/01/12 13:35:54;;;;;;;;;;;;;;;-14.53;57.58;97769.53;6372729;27;19953;-65
2022/01/12 13:38:55;;;;;;;;;;;;;;;-14.64;57.61;97784.97;6372435;27;19923;-64
2022/01/12 13:41:59;;;;;;;;;;;;;;;-14.70;58.05;97777.97;6373400;27;19930;-63
2022/01/12 13:45:04;;;;;;;;;;;;;;;-14.79;57.84;97777.53;6372621;27;20018;-64
2022/01/12 13:48:15;;;;;;;;;;;;;;;-14.81;57.97;97776.59;6373105;27;20389;-64
2022/01/12 13:51:26;;;;;;;;;;;;;;;-14.83;58.27;97770.59;6372847;27;19927;-64
2022/01/12 13:54:31;;;;;;;;;;;;;;;-14.81;58.19;97785.03;6372822;27;19928;-64
2022/01/12 13:57:34;;;;;;;;;;;;;;;-14.77;59.12;97784.41;6372630;27;19923;-65
2022/01/12 14:00:37;;;;;;;;;;;;;;;-14.93;58.52;97785.31;6372589;27;20320;-64
2022/01/12 14:03:43;;;;;;;;;;;;;;;-14.91;58.62;97790.47;6372441;27;20026;-65
2022/01/12 14:06:46;;;;;;;;;;;;;;;-14.92;59.01;97786.19;6371550;27;19930;-65
2022/01/12 14:09:54;;;;;;;;;;;;;;;-15.04;59.07;97783.94;6371222;27;19923;-65
2022/01/12 14:12:56;;;;;;;;;;;;;;;-15.14;59.02;97781.75;6372176;27;19930;-64
2022/01/12 14:16:10;;;;;;;;;;;;;;;-15.23;59.10;97792.25;6371381;27;19924;-65
2022/01/12 14:19:11;;;;;;;;;;;;;;;-15.31;59.26;97791.03;6372483;27;19930;-65
2022/01/12 14:22:14;;;;;;;;;;;;;;;-15.33;59.44;97785.03;6372120;27;20365;-64
2022/01/12 14:25:20;;;;;;;;;;;;;;;-15.36;59.26;97786.53;6371357;27;20018;-66
2022/01/12 14:28:28;;;;;;;;;;;;;;;-15.31;59.36;97792.66;6372205;27;20018;-65
2022/01/12 14:31:34;;;;;;;;;;;;;;;-15.43;59.35;97796.28;6372355;27;19949;-66
2022/01/12 14:34:35;;;;;;;;;;;;;;;-15.47;59.56;97794.41;6371662;27;19925;-65
2022/01/12 14:37:36;;;;;;;;;;;;;;;-15.45;59.94;97800.41;6371328;27;19923;-64
2022/01/12 14:40:39;;;;;;;;;;;;;;;-15.42;60.04;97800.56;6371512;27;19931;-64
2022/01/12 14:43:42;;;;;;;;;;;;;;;-15.55;59.73;97800.72;6371380;27;19930;-64
2022/01/12 14:46:47;;;;;;;;;;;;;;;-15.57;60.13;97812.38;6372158;27;19923;-64
2022/01/12 14:49:49;;;;;;;;;;;;;;;-15.44;60.44;97809.72;6371197;27;19927;-64
2022/01/12 14:52:53;;;;;;;;;;;;;;;-15.46;60.11;97812.94;6370711;27;19924;-64
2022/01/12 14:55:55;;;;;;;;;;;;;;;-15.42;60.16;97815.72;6370556;27;19924;-64
2022/01/12 14:58:56;;;;;;;;;;;;;;;-15.38;60.45;97820.09;6371689;27;20004;-64
2022/01/12 15:01:56;;;;;;;;;;;;;;;-15.36;60.40;97822.72;6370747;27;19945;-63
2022/01/12 15:05:00;;;;;;;;;;;;;;;-15.28;60.17;97830.66;6371517;27;19923;-64
2022/01/12 15:08:04;;;;;;;;;;;;;;;-15.17;60.38;97815.28;6371571;27;20017;-65
2022/01/12 15:11:07;;;;;;;;;;;;;;;-15.18;60.46;97812.69;6370788;27;19923;-64
2022/01/12 15:14:24;;;;;;;;;;;;;;;-15.30;60.39;97819.66;6371491;28;20424;-65
2022/01/12 15:17:25;;;;;;;;;;;;;;;-15.26;60.44;97826.56;6370365;28;19923;-64
2022/01/12 15:20:28;;;;;;;;;;;;;;;-15.21;60.34;97822.63;6371310;28;19923;-63
2022/01/12 15:23:31;;;;;;;;;;;;;;;-15.18;60.58;97817.72;6352531;28;19927;-63
2022/01/12 15:26:35;;;;;;;;;;;;;;;-15.23;60.38;97826.72;6371615;28;19930;-65
2022/01/12 15:29:36;;;;;;;;;;;;;;;-15.13;60.79;97826.41;6371367;28;20033;-63
2022/01/12 15:32:37;;;;;;;;;;;;;;;-15.21;60.49;97825.16;6371712;28;19923;-64
2022/01/12 15:35:41;;;;;;;;;;;;;;;-15.23;60.56;97840.19;6370488;28;19923;-64
2022/01/12 15:38:46;;;;;;;;;;;;;;;-15.23;61.05;97837.66;6371517;28;19923;-64
2022/01/12 15:41:47;;;;;;;;;;;;;;;-15.24;60.89;97837.63;6370720;28;19923;-64
2022/01/12 15:44:48;;;;;;;;;;;;;;;-15.20;60.88;97849.59;6370706;28;20293;-64
2022/01/12 15:47:49;;;;;;;;;;;;;;;-15.25;60.91;97851.03;6370189;28;19984;-64
2022/01/12 15:50:53;;;;;;;;;;;;;;;-15.26;60.94;97850.16;6371159;28;20006;-63
2022/01/12 15:53:54;;;;;;;;;;;;;;;-15.18;61.46;97842.97;6370563;28;19923;-64
2022/01/12 15:56:57;;;;;;;;;;;;;;;-15.18;61.29;97853.06;6352725;28;19924;-64
2022/01/12 15:59:58;;;;;;;;;;;;;;;-15.20;61.16;97854.63;6371103;28;20262;-64
2022/01/12 16:02:59;;;;;;;;;;;;;;;-15.21;61.15;97858.81;6372655;27;19926;-64
2022/01/12 16:06:00;;;;;;;;;;;;;;;-15.20;61.04;97850.47;6375881;27;19930;-63
2022/01/12 16:09:02;;;;;;;;;;;;;;;-15.19;61.02;97862.31;6375742;27;19919;-64
2022/01/12 16:12:03;;;;;;;;;;;;;;;-15.22;61.42;97856.25;6375461;27;19930;-63
2022/01/12 16:15:04;;;;;;;;;;;;;;;-15.23;61.19;97864.56;6374607;27;19919;-64
2022/01/12 16:18:08;;;;;;;;;;;;;;;-15.32;61.05;97859.94;6375854;27;19924;-64
2022/01/12 16:21:09;;;;;;;;;;;;;;;-15.39;61.61;97860.44;6374839;27;19924;-64
2022/01/12 16:24:14;;;;;;;;;;;;;;;-15.43;61.71;97861.91;6375184;27;20312;-64
2022/01/12 16:27:15;;;;;;;;;;;;;;;-15.39;61.44;97852.84;6375185;27;20306;-64
2022/01/12 16:30:18;;;;;;;;;;;;;;;-15.36;61.24;97867.28;6375166;27;19996;-64
2022/01/12 16:33:20;;;;;;;;;;;;;;;-15.29;61.12;97864.28;6375038;27;19934;-66
2022/01/12 16:36:23;;;;;;;;;;;;;;;-15.27;61.10;97870.28;6374454;27;20313;-64
2022/01/12 16:39:29;;;;;;;;;;;;;;;-15.26;61.57;97864.44;6374383;27;19944;-64
2022/01/12 16:42:33;;;;;;;;;;;;;;;-15.28;61.16;97866.00;6374991;27;19923;-64
2022/01/12 16:45:35;;;;;;;;;;;;;;;-15.24;61.41;97861.19;6373851;27;20290;-64
2022/01/12 16:48:36;;;;;;;;;;;;;;;-15.29;61.63;97866.78;6373902;27;20309;-63
2022/01/12 16:51:37;;;;;;;;;;;;;;;-15.29;61.98;97864.28;6374162;27;19984;-64
2022/01/12 16:54:40;;;;;;;;;;;;;;;-15.39;61.55;97863.81;6374674;27;19923;-65
2022/01/12 16:57:41;;;;;;;;;;;;;;;-15.41;62.31;97870.41;6373476;27;19930;-64
2022/01/12 17:00:45;;;;;;;;;;;;;;;-15.47;61.87;97881.88;6374430;27;19923;-64
2022/01/12 17:03:48;;;;;;;;;;;;;;;-15.40;62.32;97877.22;6374820;27;20018;-63
2022/01/12 17:06:52;;;;;;;;;;;;;;;-15.28;62.35;97876.97;6374259;27;19927;-64
2022/01/12 17:09:53;;;;;;;;;;;;;;;-15.36;62.71;97870.66;6374248;27;20285;-64
2022/01/12 17:12:56;;;;;;;;;;;;;;;-15.42;62.19;97881.31;6374240;27;19923;-65
2022/01/12 17:16:00;;;;;;;;;;;;;;;-15.48;62.35;97873.44;6373345;27;19931;-65
2022/01/12 17:19:13;;;;;;;;;;;;;;;-15.50;62.45;97867.44;6374069;27;19923;-65
2022/01/12 17:22:18;;;;;;;;;;;;;;;-15.55;63.27;97876.41;6373074;27;19928;-65
2022/01/12 17:25:28;;;;;;;;;;;;;;;-15.47;63.15;97870.13;6373691;27;19930;-64
2022/01/12 17:28:32;;;;;;;;;;;;;;;-15.55;62.99;97876.41;6373803;27;19923;-64
2022/01/12 17:31:34;;;;;;;;;;;;;;;-15.39;63.40;97873.91;6373793;27;19969;-65
2022/01/12 17:34:38;;;;;;;;;;;;;;;-15.44;63.01;97865.22;6373827;27;19927;-64
2022/01/12 17:37:41;;;;;;;;;;;;;;;-15.46;63.02;97871.84;6373938;27;19923;-64
2022/01/12 17:40:48;;;;;;;;;;;;;;;-15.41;63.27;97874.59;6373653;27;19927;-64